LFPN 171430Z AUTO 20008KT 9999 SCT004 06/05 Q1023 BECMG BKN003

ElémentsDécodage
LFPN Station météo située sur l'aérodrome de TOUSSUS-LE-NOBLE
171430Z émis le 17 du mois à 14h30 UTC
AUTO Bulletin édité par un automate
20008KT vent du 200°, 08 noeuds
9999 visibilité horizontale supérieure à 10 Km
SCT004 nuages épars (3/8 à 4/8) à 400 pieds
06/05 température 06°C, point de rosée 05°C
 soit une humidité relative de 93%
Q1023 la pression au niveau de la mer (QNH) est de 1023 hPa
BECMG fluctuation du temps prévue
BKN003 nuages morcelés (5/8 à 7/8) à 300 pieds